Погода Эль-Груйона неделю

Халиско, Мексика

27 мая-02 июня
  • 27мая
    Сегодня
    +19°
    +37°
    Ясно и безоблачно
    ВремяПогодаТемператураВлажностьДавлениеВетер, м/сВероятность осадков
    00:00Ясно и безоблачно+23°C72 %691 мм1.1 м/с2 %
    03:00Ясно и безоблачно+21°C80 %691 мм0.3 м/с2 %
    06:00Ясно и безоблачно+19°C80 %690 мм0.5 м/с2 %
    09:00Ясно и безоблачно+26°C43 %692 мм0.4 м/с2 %
    12:00Ясно и безоблачно+35°C23 %692 мм1.7 м/с2 %
    15:00Ясно и безоблачно+36°C20 %691 мм5.6 м/с2 %
    18:00Ясно и безоблачно+31°C35 %690 мм5.0 м/с2 %
    21:00Ясно и безоблачно+25°C51 %691 мм1.7 м/с2 %
  • 28мая
    Вторник
    +20°
    +37°
    Ясно и безоблачно
    ВремяПогодаТемператураВлажностьДавлениеВетер, м/сВероятность осадков
    00:00Ясно и безоблачно+23°C60 %692 мм0.7 м/с2 %
    03:00Ясно и безоблачно+21°C68 %691 мм0.5 м/с2 %
    06:00Ясно и безоблачно+20°C65 %691 мм0.7 м/с2 %
    09:00Ясно и безоблачно+27°C36 %693 мм0.4 м/с2 %
    12:00Ясно и безоблачно+37°C19 %693 мм1.7 м/с2 %
    15:00Ясно и безоблачно+36°C19 %691 мм5.7 м/с2 %
    18:00Практически безоблачно+32°C30 %691 мм4.4 м/с3 %
    21:00Ясно и безоблачно+26°C47 %692 мм2.0 м/с2 %
  • 29мая
    Среда
    +20°
    +37°
    Практически безоблачно
    ВремяПогодаТемператураВлажностьДавлениеВетер, м/сВероятность осадков
    00:00Ясно и безоблачно+24°C55 %692 мм0.5 м/с2 %
    03:00Ясно и безоблачно+22°C63 %691 мм0.5 м/с2 %
    06:00Ясно и безоблачно+21°C66 %691 мм0.5 м/с2 %
    09:00Ясно и безоблачно+28°C39 %693 мм0.3 м/с2 %
    12:00Ясно и безоблачно+36°C24 %693 мм3.2 м/с2 %
    15:00Практически безоблачно+36°C23 %692 мм5.4 м/с8 %
    18:00Практически безоблачно+32°C29 %691 мм4.6 м/с15 %
    21:00Ясно и безоблачно+27°C42 %692 мм1.4 м/с2 %
  • 30мая
    Четверг
    +19°
    +37°
    Ясно и безоблачно
    ВремяПогодаТемператураВлажностьДавлениеВетер, м/сВероятность осадков
    00:00Ясно и безоблачно+24°C50 %692 мм0.9 м/с2 %
    03:00Ясно и безоблачно+22°C56 %690 мм0.7 м/с2 %
    06:00Ясно и безоблачно+21°C56 %690 мм0.6 м/с2 %
    09:00Ясно и безоблачно+28°C34 %693 мм0.2 м/с2 %
    12:00Ясно и безоблачно+36°C19 %693 мм2.8 м/с2 %
    15:00Ясно и безоблачно+36°C24 %691 мм5.5 м/с10 %
    18:00Ясно и безоблачно+31°C31 %690 мм5.2 м/с10 %
    21:00Ясно и безоблачно+26°C45 %691 мм1.5 м/с2 %
Мы используем cookies
Соглашаюсь